Time;durP1;ratioP1;P1;durP2;ratioP2;P2;SDS_P1;SDS_P2;PMS_P1;PMS_P2;Temp;Humidity;BMP_temperature;BMP_pressure;BME280_temperature;BME280_humidity;BME280_pressure;Samples;Min_cycle;Max_cycle;Signal;HPM_P1;HPM_P2
2022/01/28 00:02:13;;;;;;;15.45;8.25;;;;;;;6.61;100.00;98717.56;5040440;28;20655;-57
2022/01/28 00:04:38;;;;;;;16.17;7.38;;;;;;;6.94;100.00;98726.59;5039117;28;20108;-54
2022/01/28 00:07:03;;;;;;;14.27;6.82;;;;;;;7.00;100.00;98728.25;5040542;28;20116;-54
2022/01/28 00:09:29;;;;;;;16.02;5.97;;;;;;;7.88;100.00;98732.84;5040881;28;20414;-56
2022/01/28 00:11:54;;;;;;;11.38;4.45;;;;;;;7.98;100.00;98721.41;5040406;28;20047;-55
2022/01/28 00:14:41;;;;;;;18.08;7.47;;;;;;;8.08;100.00;98724.69;5041051;28;20077;-55
2022/01/28 00:36:42;;;;;;;11.32;6.35;;;;;;;8.35;100.00;98751.88;5038224;28;20411;-54
2022/01/28 00:39:07;;;;;;;12.68;6.70;;;;;;;7.83;100.00;98748.53;5040491;28;20763;-54
2022/01/28 00:41:33;;;;;;;10.75;5.55;;;;;;;9.29;100.00;98762.03;5040128;28;20045;-54
2022/01/28 00:43:58;;;;;;;10.68;5.20;;;;;;;9.52;100.00;98751.91;5040405;28;20658;-53
2022/01/28 00:46:23;;;;;;;9.35;4.85;;;;;;;9.15;100.00;98747.56;5039272;28;20033;-55
2022/01/28 00:48:49;;;;;;;9.40;3.78;;;;;;;10.06;100.00;98763.56;5040242;28;20128;-54
2022/01/28 00:51:14;;;;;;;11.50;6.00;;;;;;;8.76;100.00;98765.78;5037773;28;20040;-54
2022/01/28 00:53:39;;;;;;;10.98;5.80;;;;;;;7.27;100.00;98768.50;5040221;28;20025;-55
2022/01/28 00:56:05;;;;;;;11.48;5.38;;;;;;;9.61;100.00;98775.13;5040040;28;20041;-55
2022/01/28 00:58:30;;;;;;;11.73;5.25;;;;;;;8.53;100.00;98776.69;5040803;28;20029;-55
2022/01/28 01:00:56;;;;;;;9.88;5.65;;;;;;;8.29;100.00;98776.25;5039618;28;20033;-53
2022/01/28 01:03:21;;;;;;;12.82;6.60;;;;;;;7.70;100.00;98767.78;5040035;28;20047;-54
2022/01/28 01:05:46;;;;;;;10.38;4.82;;;;;;;7.71;100.00;98764.31;5037680;28;20041;-55
2022/01/28 01:08:12;;;;;;;10.20;5.03;;;;;;;11.03;100.00;98783.44;5039883;28;20546;-54
2022/01/28 01:10:38;;;;;;;7.22;3.75;;;;;;;10.56;100.00;98779.59;5039577;28;20037;-53
2022/01/28 01:13:04;;;;;;;10.27;4.90;;;;;;;8.86;100.00;98766.47;5039987;28;20025;-55
2022/01/28 01:15:35;;;;;;;9.70;5.10;;;;;;;8.52;100.00;98785.34;5039376;28;20033;-54
2022/01/28 01:18:11;;;;;;;9.57;4.38;;;;;;;10.93;100.00;98791.56;5039785;28;20481;-54
2022/01/28 01:23:16;;;;;;;8.82;3.17;;;;;;;10.76;100.00;98814.69;5039688;28;20074;-54
2022/01/28 01:26:30;;;;;;;9.80;5.20;;;;;;;8.00;100.00;98801.94;5038018;28;20090;-54
2022/01/28 01:28:36;;;;;;;9.38;5.95;;;;;;;7.16;100.00;98799.78;5034042;28;20395;-54
2022/01/28 01:31:05;;;;;;;9.00;5.90;;;;;;;6.89;100.00;98798.44;5039245;28;20064;-53
2022/01/28 01:33:36;;;;;;;12.38;6.28;;;;;;;8.34;100.00;98809.09;5038986;28;20039;-53
2022/01/28 01:36:02;;;;;;;13.32;5.70;;;;;;;9.07;100.00;98818.00;5037320;28;20124;-53
2022/01/28 01:38:32;;;;;;;11.27;6.28;;;;;;;6.86;100.00;98814.03;5039880;28;20079;-53
2022/01/28 01:41:00;;;;;;;11.48;4.80;;;;;;;7.77;100.00;98826.53;5038587;28;20140;-54
2022/01/28 01:53:55;;;;;;;11.77;5.60;;;;;;;8.11;100.00;98823.38;5039075;28;20409;-53
2022/01/28 01:56:21;;;;;;;13.07;7.15;;;;;;;7.96;100.00;98824.50;5038161;28;20041;-54
2022/01/28 01:58:47;;;;;;;12.10;5.80;;;;;;;7.71;100.00;98821.44;5039076;28;20021;-55
2022/01/28 02:01:13;;;;;;;14.23;7.05;;;;;;;7.83;100.00;98821.25;5038375;28;20045;-54
2022/01/28 02:03:38;;;;;;;9.80;3.97;;;;;;;8.93;100.00;98827.84;5039018;28;20033;-53
2022/01/28 02:06:04;;;;;;;13.63;6.85;;;;;;;6.82;100.00;98828.78;5036490;28;20460;-55
2022/01/28 02:08:34;;;;;;;14.77;7.60;;;;;;;7.35;100.00;98826.31;5039074;28;20513;-53
2022/01/28 02:11:00;;;;;;;6.53;2.63;;;;;;;11.60;100.00;98847.88;5038381;28;20029;-56
2022/01/28 02:13:28;;;;;;;14.48;6.20;;;;;;;8.41;100.00;98827.13;5037758;28;20033;-53
2022/01/28 02:15:55;;;;;;;11.75;5.95;;;;;;;8.68;100.00;98820.56;5038518;28;20045;-55
2022/01/28 02:18:21;;;;;;;15.07;6.07;;;;;;;8.14;100.00;98825.03;5038614;28;20024;-55
2022/01/28 02:20:50;;;;;;;15.45;6.20;;;;;;;7.87;100.00;98843.69;5035933;28;20068;-54
2022/01/28 02:23:15;;;;;;;8.45;3.50;;;;;;;11.26;100.00;98851.50;5038777;28;20261;-54
2022/01/28 02:25:42;;;;;;;12.63;5.55;;;;;;;9.09;100.00;98837.97;5038860;28;20574;-54
2022/01/28 02:28:10;;;;;;;9.63;4.03;;;;;;;9.80;100.00;98832.00;5039169;28;20655;-54
2022/01/28 02:30:35;;;;;;;11.50;6.45;;;;;;;7.71;100.00;98837.03;5038658;28;20039;-53
2022/01/28 02:33:25;;;;;;;10.20;5.40;;;;;;;7.61;100.00;98840.63;5038981;28;20020;-55
2022/01/28 02:35:48;;;;;;;14.88;6.63;;;;;;;8.44;100.00;98840.13;5035843;28;20099;-53
2022/01/28 02:38:15;;;;;;;14.95;6.85;;;;;;;6.82;100.00;98838.28;5039489;28;20017;-54
2022/01/28 02:40:46;;;;;;;11.60;5.05;;;;;;;9.61;100.00;98841.97;5038335;28;20048;-54
2022/01/28 02:46:09;;;;;;;7.18;3.22;;;;;;;8.40;100.00;98845.34;5021828;28;20623;-53
2022/01/28 02:48:36;;;;;;;10.55;4.97;;;;;;;9.22;100.00;98845.44;5038581;28;20033;-53
2022/01/28 02:51:08;;;;;;;14.65;6.65;;;;;;;7.81;100.00;98856.78;5036056;28;20037;-53
2022/01/28 02:58:43;;;;;;;9.43;4.38;;;;;;;8.84;100.00;98854.94;5039058;28;20057;-55
2022/01/28 03:01:13;;;;;;;13.90;6.60;;;;;;;7.27;100.00;98856.72;5038461;28;20064;-53
2022/01/28 03:03:40;;;;;;;13.93;6.38;;;;;;;7.45;100.00;98853.88;5038458;28;20056;-54
2022/01/28 03:06:05;;;;;;;12.25;5.82;;;;;;;8.48;100.00;98859.13;5036464;28;20037;-54
2022/01/28 03:08:31;;;;;;;15.13;7.35;;;;;;;6.73;100.00;98850.50;5038845;28;20029;-54
2022/01/28 03:16:19;;;;;;;10.68;5.00;;;;;;;8.84;100.00;98864.47;5041599;28;20047;-56
2022/01/28 03:23:54;;;;;;;12.75;6.30;;;;;;;8.49;100.00;98866.00;5042157;28;20495;-54
2022/01/28 03:26:20;;;;;;;13.18;6.03;;;;;;;7.85;100.00;98866.25;5041639;28;20090;-54
2022/01/28 03:28:45;;;;;;;12.55;5.63;;;;;;;7.31;100.00;98872.22;5042257;28;20636;-55
2022/01/28 03:31:10;;;;;;;11.27;5.22;;;;;;;10.23;100.00;98868.22;5041204;28;20064;-54
2022/01/28 03:33:36;;;;;;;10.77;4.65;;;;;;;8.96;100.00;98859.03;5041592;28;20029;-55
2022/01/28 03:36:09;;;;;;;10.15;4.78;;;;;;;9.75;100.00;98860.75;5039360;28;20721;-53
2022/01/28 03:38:36;;;;;;;14.75;5.10;;;;;;;8.82;100.00;98856.72;5042032;28;20024;-53
2022/01/28 03:41:01;;;;;;;10.10;4.65;;;;;;;9.38;100.00;98871.16;5041368;28;20088;-54
2022/01/28 03:43:27;;;;;;;9.32;4.78;;;;;;;8.83;100.00;98886.19;5041758;28;20099;-55
2022/01/28 03:45:52;;;;;;;8.25;3.85;;;;;;;8.79;100.00;98892.34;5041102;28;20065;-53
2022/01/28 03:48:18;;;;;;;16.70;5.60;;;;;;;8.27;100.00;98900.19;5041571;28;20582;-53
2022/01/28 03:50:43;;;;;;;8.55;4.50;;;;;;;9.06;100.00;98906.53;5038551;28;20044;-55
2022/01/28 03:53:09;;;;;;;11.13;5.07;;;;;;;8.16;100.00;98907.31;5041496;28;20560;-55
2022/01/28 03:55:35;;;;;;;10.32;4.57;;;;;;;7.48;100.00;98905.75;5041318;28;20037;-54
2022/01/28 03:58:00;;;;;;;7.93;3.25;;;;;;;9.57;100.00;98903.69;5041114;28;20086;-54
2022/01/28 04:00:29;;;;;;;10.98;5.40;;;;;;;8.26;100.00;98918.41;5041004;28;20044;-53
2022/01/28 04:03:06;;;;;;;12.55;6.05;;;;;;;8.17;100.00;98915.97;5040688;28;20086;-54
2022/01/28 04:13:32;;;;;;;12.50;5.35;;;;;;;10.12;100.00;98939.81;5041298;28;20082;-54
2022/01/28 04:18:22;;;;;;;13.48;6.43;;;;;;;7.51;100.00;98943.78;5039373;28;20556;-53
2022/01/28 04:20:48;;;;;;;12.27;5.95;;;;;;;8.39;100.00;98950.25;5037902;28;20663;-56
2022/01/28 04:23:13;;;;;;;11.18;4.95;;;;;;;9.70;100.00;98951.19;5040773;28;20394;-54
2022/01/28 04:25:38;;;;;;;10.18;4.57;;;;;;;8.92;100.00;98945.84;5040624;28;20079;-54
2022/01/28 04:28:04;;;;;;;7.63;2.67;;;;;;;13.15;100.00;98967.38;5040954;28;20449;-55
2022/01/28 04:30:29;;;;;;;10.55;4.82;;;;;;;8.90;100.00;98952.84;5035219;28;20045;-54
2022/01/28 04:32:54;;;;;;;11.55;5.80;;;;;;;7.66;100.00;98960.88;5020111;28;20119;-54
2022/01/28 04:35:20;;;;;;;7.15;3.38;;;;;;;10.97;100.00;98964.59;5036690;28;20025;-54
2022/01/28 04:40:27;;;;;;;10.27;5.85;;;;;;;7.39;100.00;98962.09;5040264;28;20087;-55
2022/01/28 05:27:26;;;;;;;12.23;6.13;;;;;;;8.11;100.00;99028.66;5021751;28;20127;-53
2022/01/28 05:29:52;;;;;;;9.30;3.63;;;;;;;9.19;100.00;99045.09;5039354;28;20468;-54
2022/01/28 05:32:17;;;;;;;8.15;3.25;;;;;;;10.69;100.00;99053.22;5037793;28;20581;-56
2022/01/28 05:34:43;;;;;;;6.60;2.63;;;;;;;9.75;100.00;99047.50;5037278;28;20679;-54
2022/01/28 05:37:08;;;;;;;13.45;6.15;;;;;;;8.01;100.00;99027.91;5038820;28;20045;-54
2022/01/28 05:39:34;;;;;;;12.85;6.38;;;;;;;8.50;100.00;99036.75;5039383;28;20035;-54
2022/01/28 05:42:00;;;;;;;11.77;6.40;;;;;;;8.47;100.00;99036.78;5037438;28;20037;-55
2022/01/28 05:44:27;;;;;;;14.75;6.57;;;;;;;6.01;100.00;99042.03;5039607;28;20442;-55
2022/01/28 05:46:55;;;;;;;13.98;6.38;;;;;;;7.13;100.00;99052.38;5038624;28;20037;-55
2022/01/28 05:49:21;;;;;;;19.42;7.53;;;;;;;8.27;100.00;99056.16;5037190;28;20025;-53
2022/01/28 05:51:46;;;;;;;13.75;6.47;;;;;;;7.20;100.00;99052.28;5038262;28;20048;-58
2022/01/28 05:54:11;;;;;;;13.48;4.95;;;;;;;7.48;100.00;99066.69;5037990;28;20029;-54
2022/01/28 05:56:37;;;;;;;13.50;5.13;;;;;;;7.37;100.00;99071.16;5038848;28;20036;-54
2022/01/28 05:59:03;;;;;;;12.13;5.18;;;;;;;8.01;100.00;99063.44;5039426;28;20035;-54
2022/01/28 06:01:28;;;;;;;9.50;3.92;;;;;;;10.73;100.00;99079.22;5033577;28;20037;-53
2022/01/28 06:03:53;;;;;;;11.07;4.97;;;;;;;9.59;100.00;99078.19;5036982;28;20135;-53
2022/01/28 06:06:21;;;;;;;7.28;3.15;;;;;;;12.11;100.00;99086.81;5039478;28;20079;-54
2022/01/28 06:08:48;;;;;;;8.25;3.15;;;;;;;9.63;100.00;99067.69;5042922;28;20024;-53
2022/01/28 06:11:14;;;;;;;11.75;5.05;;;;;;;8.45;100.00;99064.56;5039903;28;20051;-56
2022/01/28 06:13:39;;;;;;;8.38;4.03;;;;;;;8.72;100.00;99073.69;5042370;28;20036;-53
2022/01/28 06:16:05;;;;;;;10.32;5.35;;;;;;;6.60;100.00;99060.63;5042084;28;20056;-54
2022/01/28 06:18:30;;;;;;;8.02;3.92;;;;;;;9.55;100.00;99066.13;5042439;28;20032;-55
2022/01/28 06:20:55;;;;;;;9.73;5.07;;;;;;;8.04;100.00;99068.59;5039680;28;20505;-54
2022/01/28 06:23:21;;;;;;;8.00;3.00;;;;;;;9.83;100.00;99077.72;5042415;28;20025;-53
2022/01/28 06:25:48;;;;;;;10.23;4.57;;;;;;;8.25;100.00;99077.81;5042148;28;20069;-55
2022/01/28 06:28:13;;;;;;;14.23;5.88;;;;;;;7.20;100.00;99075.66;5042105;28;20036;-55
2022/01/28 06:30:39;;;;;;;13.38;5.75;;;;;;;7.02;100.00;99084.47;5041841;28;20563;-54
2022/01/28 06:33:04;;;;;;;10.77;5.65;;;;;;;8.09;100.00;99092.78;5041998;28;20025;-54
2022/01/28 06:35:29;;;;;;;11.57;5.60;;;;;;;6.74;100.00;99088.16;5039694;28;20423;-53
2022/01/28 06:37:55;;;;;;;9.68;4.35;;;;;;;6.89;100.00;99099.28;5042071;28;20605;-53
2022/01/28 06:40:20;;;;;;;13.25;4.97;;;;;;;8.81;100.00;99109.09;5041966;28;20036;-54
2022/01/28 06:42:46;;;;;;;7.57;2.63;;;;;;;14.10;100.00;99090.63;5042610;28;20021;-54
2022/01/28 06:45:12;;;;;;;6.97;2.30;;;;;;;16.99;100.00;99107.06;5045803;28;20025;-54
2022/01/28 06:47:37;;;;;;;6.78;3.08;;;;;;;13.39;100.00;99095.84;5045808;28;20025;-54
2022/01/28 06:50:07;;;;;;;6.05;2.90;;;;;;;16.99;100.00;99096.50;5044418;28;20033;-54
2022/01/28 06:52:34;;;;;;;8.23;3.38;;;;;;;19.03;100.00;99071.47;5045188;28;20041;-55
2022/01/28 06:55:03;;;;;;;6.68;3.10;;;;;;;18.59;100.00;99072.19;5046548;28;20059;-55
2022/01/28 06:57:29;;;;;;;9.40;3.90;;;;;;;19.77;100.00;99087.38;5043357;28;20040;-53
2022/01/28 06:59:55;;;;;;;6.35;3.17;;;;;;;18.12;100.00;99075.69;5043955;28;20027;-54
2022/01/28 07:02:20;;;;;;;8.52;3.72;;;;;;;17.52;100.00;99087.66;5041956;28;20040;-54
2022/01/28 07:04:46;;;;;;;6.68;3.17;;;;;;;17.27;92.35;99082.78;5041152;28;20024;-54
2022/01/28 07:07:11;;;;;;;8.88;3.45;;;;;;;16.61;91.80;99080.75;5042847;28;20040;-54
2022/01/28 07:09:36;;;;;;;8.00;4.25;;;;;;;13.55;68.90;99086.53;5044983;28;20033;-54
2022/01/28 07:12:02;;;;;;;9.20;4.57;;;;;;;6.72;100.00;99097.69;5043681;28;20040;-54
2022/01/28 07:14:28;;;;;;;9.95;4.60;;;;;;;7.26;100.00;99098.94;5045511;28;20070;-54
2022/01/28 07:16:54;;;;;;;9.93;4.93;;;;;;;6.24;100.00;99112.69;5045127;28;20041;-53
2022/01/28 07:19:19;;;;;;;19.45;6.60;;;;;;;5.83;100.00;99111.16;5044138;28;20765;-55
2022/01/28 07:21:44;;;;;;;14.32;5.65;;;;;;;5.66;100.00;99106.03;5044075;28;20419;-54
2022/01/28 07:24:09;;;;;;;13.35;4.50;;;;;;;5.49;100.00;99112.97;5045437;28;20402;-54
2022/01/28 07:26:35;;;;;;;16.27;5.55;;;;;;;5.51;100.00;99119.00;5044373;28;20040;-53
2022/01/28 07:29:00;;;;;;;13.35;5.10;;;;;;;5.03;100.00;99119.09;5045644;28;20063;-54
2022/01/28 07:31:25;;;;;;;15.35;5.15;;;;;;;5.03;100.00;99121.69;5044506;28;20072;-54
2022/01/28 07:33:51;;;;;;;14.50;5.28;;;;;;;5.17;100.00;99132.03;5045278;28;20029;-53
2022/01/28 07:36:16;;;;;;;10.32;4.38;;;;;;;5.63;100.00;99136.25;5042529;28;20056;-54
2022/01/28 07:38:41;;;;;;;12.45;4.75;;;;;;;4.73;100.00;99146.69;5034010;28;20029;-53
2022/01/28 07:41:08;;;;;;;14.80;5.05;;;;;;;5.21;100.00;99155.28;5044200;28;20383;-54
2022/01/28 07:43:37;;;;;;;13.77;4.78;;;;;;;4.63;100.00;99163.00;5045304;28;20032;-54
2022/01/28 07:46:03;;;;;;;14.20;4.70;;;;;;;4.71;100.00;99169.06;5044929;28;20037;-53
2022/01/28 07:48:28;;;;;;;11.38;4.47;;;;;;;5.59;100.00;99167.31;5043593;28;20375;-53
2022/01/28 07:50:53;;;;;;;14.55;4.95;;;;;;;5.60;100.00;99170.75;5042398;28;20406;-54
2022/01/28 07:53:19;;;;;;;14.35;4.60;;;;;;;5.80;100.00;99175.88;5044715;28;20136;-54
2022/01/28 07:55:44;;;;;;;15.45;5.47;;;;;;;6.08;100.00;99186.19;5043175;28;20311;-55
2022/01/28 07:58:10;;;;;;;12.48;4.68;;;;;;;5.54;100.00;99169.03;5045049;28;20063;-54
2022/01/28 08:00:35;;;;;;;12.43;4.80;;;;;;;5.01;100.00;99173.41;5044195;28;20045;-54
2022/01/28 08:03:01;;;;;;;14.45;4.97;;;;;;;5.25;100.00;99170.81;5044560;28;20741;-53
2022/01/28 08:05:26;;;;;;;12.35;5.00;;;;;;;5.64;100.00;99166.44;5040875;28;20040;-55
2022/01/28 08:07:52;;;;;;;12.75;4.80;;;;;;;5.07;100.00;99166.50;5044636;28;20474;-53
2022/01/28 08:10:18;;;;;;;13.77;4.38;;;;;;;5.35;100.00;99178.56;5044009;28;20070;-53
2022/01/28 08:12:47;;;;;;;10.60;4.10;;;;;;;5.42;100.00;99179.41;5044688;28;20104;-55
2022/01/28 08:15:14;;;;;;;10.68;4.03;;;;;;;5.82;100.00;99192.28;5043877;28;20518;-54
2022/01/28 08:17:39;;;;;;;8.95;3.60;;;;;;;5.90;100.00;99187.94;5045259;28;20025;-53
2022/01/28 08:20:05;;;;;;;11.23;4.05;;;;;;;5.54;100.00;99196.66;5042487;28;20033;-55
2022/01/28 08:22:31;;;;;;;14.52;4.07;;;;;;;5.25;100.00;99196.69;5043484;28;20037;-54
2022/01/28 08:24:56;;;;;;;12.65;4.03;;;;;;;5.44;100.00;99201.00;5044484;28;20823;-54
2022/01/28 08:27:21;;;;;;;13.70;4.10;;;;;;;5.39;100.00;99192.38;5043896;28;20041;-54
2022/01/28 08:29:47;;;;;;;15.95;3.90;;;;;;;5.62;100.00;99201.81;5044838;28;20037;-54
2022/01/28 08:32:12;;;;;;;11.75;3.72;;;;;;;5.44;100.00;99213.94;5043535;28;20033;-53
2022/01/28 08:34:37;;;;;;;15.52;4.35;;;;;;;5.74;100.00;99204.38;5040977;28;20516;-54
2022/01/28 08:37:04;;;;;;;14.20;4.18;;;;;;;5.29;100.00;99211.34;5043419;28;20044;-53
2022/01/28 08:39:35;;;;;;;11.00;3.35;;;;;;;5.36;100.00;99205.28;5044321;28;20021;-54
2022/01/28 08:42:00;;;;;;;8.90;3.40;;;;;;;6.03;100.00;99213.81;5042625;28;20064;-55
2022/01/28 08:44:26;;;;;;;10.95;3.20;;;;;;;6.10;100.00;99215.53;5044327;28;20063;-55
2022/01/28 08:46:51;;;;;;;10.82;3.30;;;;;;;6.17;100.00;99212.06;5043525;28;20536;-54
2022/01/28 08:49:17;;;;;;;15.57;4.25;;;;;;;5.85;100.00;99220.75;5042460;28;20860;-54
2022/01/28 08:51:42;;;;;;;12.38;3.47;;;;;;;5.72;100.00;99222.50;5042369;28;20044;-54
2022/01/28 08:54:07;;;;;;;12.63;3.70;;;;;;;6.07;100.00;99231.94;5043443;28;20024;-54
2022/01/28 08:56:33;;;;;;;10.10;2.90;;;;;;;6.21;100.00;99234.47;5043568;28;20048;-54
2022/01/28 08:58:58;;;;;;;8.93;3.42;;;;;;;6.36;100.00;99239.63;5043720;28;20032;-54
2022/01/28 09:01:24;;;;;;;10.23;2.90;;;;;;;5.82;100.00;99241.47;5042903;28;20029;-54
2022/01/28 09:03:51;;;;;;;10.35;2.92;;;;;;;5.86;100.00;99256.13;5043538;28;20108;-54
2022/01/28 09:06:16;;;;;;;11.90;3.13;;;;;;;5.90;100.00;99259.56;5039776;28;20523;-54
2022/01/28 09:08:43;;;;;;;13.13;3.22;;;;;;;6.05;100.00;99253.56;5043906;28;20058;-54
2022/01/28 09:12:27;;;;;;;14.10;3.25;;;;;;;6.01;100.00;99267.38;5042111;28;20029;-54
2022/01/28 09:14:03;;;;;;;9.25;2.92;;;;;;;6.12;100.00;99258.72;5029446;28;20041;-56
2022/01/28 09:16:29;;;;;;;9.73;3.20;;;;;;;5.91;100.00;99251.81;5042584;28;20090;-55
2022/01/28 09:18:54;;;;;;;7.85;2.65;;;;;;;5.83;100.00;99258.75;5025627;28;20037;-53
2022/01/28 09:21:19;;;;;;;11.07;3.03;;;;;;;5.54;100.00;99267.41;5040519;28;20044;-53
2022/01/28 09:23:46;;;;;;;14.73;3.40;;;;;;;6.12;100.00;99255.25;5043288;28;20474;-53
2022/01/28 09:26:13;;;;;;;9.48;2.90;;;;;;;6.05;100.00;99259.59;5042498;28;20041;-55
2022/01/28 09:28:38;;;;;;;10.82;3.35;;;;;;;6.17;100.00;99263.88;5042826;28;20052;-54
2022/01/28 09:31:04;;;;;;;8.65;2.90;;;;;;;5.61;100.00;99257.91;5042230;28;20068;-54
2022/01/28 09:33:29;;;;;;;7.72;2.70;;;;;;;6.20;100.00;99263.00;5041546;28;20116;-53
2022/01/28 09:35:54;;;;;;;11.70;3.25;;;;;;;5.92;100.00;99284.63;5040815;28;20045;-54
2022/01/28 09:38:20;;;;;;;9.88;2.45;;;;;;;6.04;100.00;99283.75;5042941;28;20079;-54
2022/01/28 09:40:45;;;;;;;9.43;2.60;;;;;;;6.15;100.00;99292.38;5042693;28;20128;-53
2022/01/28 09:43:11;;;;;;;14.05;3.17;;;;;;;6.45;100.00;99289.69;5042803;28;20736;-54
2022/01/28 09:45:36;;;;;;;9.68;2.55;;;;;;;6.24;100.00;99281.13;5042542;28;20029;-55
2022/01/28 09:48:02;;;;;;;10.80;2.75;;;;;;;6.37;100.00;99280.22;5042972;28;20028;-54
2022/01/28 09:50:31;;;;;;;10.68;2.90;;;;;;;7.01;100.00;99288.56;5039787;28;20037;-53
2022/01/28 09:52:57;;;;;;;11.32;2.78;;;;;;;6.24;100.00;99290.63;5042223;28;20922;-53
2022/01/28 09:55:25;;;;;;;10.70;2.90;;;;;;;6.77;100.00;99286.97;5041238;28;20091;-53
2022/01/28 09:57:52;;;;;;;10.77;3.17;;;;;;;6.23;100.00;99289.78;5042570;28;20032;-53
2022/01/28 10:00:21;;;;;;;12.50;3.58;;;;;;;6.44;100.00;99293.16;5041030;28;20086;-53
2022/01/28 10:02:51;;;;;;;11.00;2.70;;;;;;;6.74;100.00;99298.19;5039955;28;20035;-56
2022/01/28 10:05:29;;;;;;;9.73;2.72;;;;;;;6.85;100.00;99289.50;5038888;28;20028;-53
2022/01/28 10:08:16;;;;;;;12.48;2.92;;;;;;;6.61;100.00;99293.09;5042497;28;20029;-53
2022/01/28 10:10:58;;;;;;;11.02;3.28;;;;;;;6.69;100.00;99292.19;5041696;28;20616;-56
2022/01/28 10:16:07;;;;;;;14.40;3.50;;;;;;;6.66;100.00;99304.31;5041557;28;20124;-55
2022/01/28 10:18:38;;;;;;;14.98;3.67;;;;;;;6.14;100.00;99301.03;5045979;28;20510;-54
2022/01/28 10:21:38;;;;;;;10.32;3.00;;;;;;;6.78;100.00;99293.00;5046435;28;20406;-55
2022/01/28 10:24:03;;;;;;;11.65;2.95;;;;;;;6.72;100.00;99307.72;5012857;28;20036;-56
2022/01/28 10:26:47;;;;;;;12.02;3.38;;;;;;;6.65;100.00;99312.94;5047967;28;20064;-55
2022/01/28 10:29:27;;;;;;;12.95;3.28;;;;;;;6.64;100.00;99301.72;5049109;28;20118;-56
2022/01/28 10:31:58;;;;;;;10.50;3.08;;;;;;;6.67;100.00;99296.53;5048045;28;20093;-57
2022/01/28 10:34:28;;;;;;;20.58;4.22;;;;;;;6.81;100.00;99304.22;5046983;28;20021;-56
2022/01/28 10:37:10;;;;;;;10.77;2.95;;;;;;;6.06;100.00;99302.75;5048430;28;20033;-56
2022/01/28 10:40:17;;;;;;;16.50;3.65;;;;;;;6.37;100.00;99307.88;5048502;28;20029;-55
2022/01/28 10:42:52;;;;;;;12.70;3.30;;;;;;;6.36;100.00;99309.59;5048064;28;20745;-55
2022/01/28 10:45:20;;;;;;;13.35;3.40;;;;;;;6.28;100.00;99310.47;5048650;28;20032;-56
2022/01/28 10:47:52;;;;;;;11.43;3.08;;;;;;;6.48;100.00;99320.78;5049098;28;20051;-57
2022/01/28 10:50:25;;;;;;;13.52;3.25;;;;;;;6.44;100.00;99319.09;5046263;28;20025;-57
2022/01/28 10:53:01;;;;;;;10.30;2.53;;;;;;;6.20;100.00;99331.22;5047895;28;20027;-56
2022/01/28 10:55:28;;;;;;;8.60;2.67;;;;;;;6.15;100.00;99314.81;5048231;28;20041;-55
2022/01/28 10:57:58;;;;;;;11.18;2.90;;;;;;;6.32;100.00;99323.44;5049071;28;20029;-57
2022/01/28 11:00:27;;;;;;;10.65;2.97;;;;;;;6.11;100.00;99332.09;5048236;28;20025;-56
2022/01/28 11:02:53;;;;;;;12.35;3.08;;;;;;;6.28;100.00;99328.63;5048313;28;20116;-55
2022/01/28 11:05:19;;;;;;;13.57;2.53;;;;;;;5.77;100.00;99332.13;5046070;28;20020;-55
2022/01/28 11:07:45;;;;;;;11.90;3.17;;;;;;;5.73;100.00;99332.97;5048562;28;20390;-56
2022/01/28 11:10:10;;;;;;;12.15;2.95;;;;;;;6.51;100.00;99328.56;5047856;28;20033;-56
2022/01/28 11:12:37;;;;;;;15.10;3.33;;;;;;;6.12;100.00;99332.97;5048400;28;20117;-55
2022/01/28 11:15:02;;;;;;;9.65;2.65;;;;;;;6.46;100.00;99332.91;5048748;28;20444;-57
2022/01/28 11:17:27;;;;;;;11.48;3.00;;;;;;;6.88;100.00;99336.19;5048720;28;20510;-57
2022/01/28 11:19:55;;;;;;;12.40;2.67;;;;;;;6.79;100.00;99331.06;5046532;28;20056;-56
2022/01/28 11:22:43;;;;;;;12.90;2.50;;;;;;;6.91;100.00;99328.38;5047350;28;20052;-55
2022/01/28 11:25:14;;;;;;;9.07;2.33;;;;;;;6.65;100.00;99333.69;5048448;28;20035;-57
2022/01/28 11:27:40;;;;;;;9.27;2.70;;;;;;;6.84;100.00;99339.69;5048483;28;20079;-55
2022/01/28 11:30:22;;;;;;;10.43;2.30;;;;;;;6.95;100.00;99338.75;5043880;28;20272;-56
2022/01/28 11:33:06;;;;;;;13.38;3.00;;;;;;;7.26;100.00;99322.13;5044869;28;20068;-55
2022/01/28 11:35:35;;;;;;;10.18;2.10;;;;;;;6.76;100.00;99324.13;5042967;28;20041;-56
2022/01/28 11:38:20;;;;;;;8.35;2.03;;;;;;;6.71;100.00;99326.75;5045207;28;20114;-55
2022/01/28 11:41:01;;;;;;;10.80;2.63;;;;;;;6.93;100.00;99329.25;5044278;28;20045;-54
2022/01/28 11:43:26;;;;;;;9.93;2.50;;;;;;;6.99;100.00;99315.41;5045680;28;20029;-54
2022/01/28 11:46:07;;;;;;;13.48;2.60;;;;;;;7.17;100.00;99317.88;5044592;28;20095;-56
2022/01/28 11:49:07;;;;;;;11.32;2.15;;;;;;;6.43;100.00;99333.75;5045446;28;20119;-56
2022/01/28 11:51:33;;;;;;;9.57;2.10;;;;;;;6.46;100.00;99323.38;5009213;28;20041;-54
2022/01/28 11:54:01;;;;;;;11.50;2.70;;;;;;;6.21;100.00;99332.94;5043775;28;20029;-55
2022/01/28 11:56:28;;;;;;;12.85;2.40;;;;;;;7.04;100.00;99330.06;5044199;28;20041;-55
2022/01/28 11:58:57;;;;;;;12.55;2.72;;;;;;;6.95;100.00;99340.50;5044378;28;20554;-55
2022/01/28 12:01:35;;;;;;;10.57;2.47;;;;;;;6.77;100.00;99336.25;5043531;28;20051;-54
2022/01/28 12:04:26;;;;;;;12.35;2.55;;;;;;;6.98;100.00;99329.22;5044410;28;20086;-56
2022/01/28 12:07:05;;;;;;;11.38;2.47;;;;;;;6.55;100.00;99332.88;5041531;28;20032;-56
2022/01/28 12:09:34;;;;;;;12.63;2.70;;;;;;;7.05;100.00;99324.00;5044420;28;20021;-54
2022/01/28 12:12:00;;;;;;;11.00;2.42;;;;;;;6.99;100.00;99331.81;5043555;28;20060;-55
2022/01/28 12:15:10;;;;;;;12.98;2.50;;;;;;;6.54;100.00;99328.53;5044518;28;20122;-55
2022/01/28 12:17:38;;;;;;;9.57;2.38;;;;;;;6.74;100.00;99329.31;5044358;28;20131;-54
2022/01/28 12:20:15;;;;;;;11.05;2.20;;;;;;;6.62;100.00;99328.53;5042260;28;20032;-55
2022/01/28 12:22:59;;;;;;;11.73;2.42;;;;;;;6.57;100.00;99331.13;5042018;28;20063;-53
2022/01/28 12:25:37;;;;;;;9.25;2.08;;;;;;;6.71;100.00;99318.13;5044280;28;20036;-53
2022/01/28 12:28:26;;;;;;;12.25;2.40;;;;;;;7.12;100.00;99307.50;5044206;28;20087;-56
2022/01/28 12:31:01;;;;;;;9.73;2.40;;;;;;;6.85;100.00;99311.13;5043840;28;20037;-54
2022/01/28 12:33:30;;;;;;;10.95;2.58;;;;;;;7.01;100.00;99306.72;5044341;28;20024;-58
2022/01/28 12:35:58;;;;;;;9.35;2.28;;;;;;;7.25;100.00;99297.06;5041698;28;20045;-54
2022/01/28 12:38:28;;;;;;;12.65;2.38;;;;;;;7.13;100.00;99301.47;5044317;28;20033;-54
2022/01/28 12:40:54;;;;;;;12.15;2.58;;;;;;;7.89;100.00;99303.47;5043105;28;20033;-54
2022/01/28 12:43:29;;;;;;;12.40;2.50;;;;;;;7.68;100.00;99297.59;5042277;28;20592;-55
2022/01/28 12:46:02;;;;;;;10.52;2.60;;;;;;;7.71;100.00;99288.91;5043309;28;20568;-55
2022/01/28 12:48:27;;;;;;;9.18;2.38;;;;;;;7.97;100.00;99290.41;5043755;28;20025;-56
2022/01/28 12:50:54;;;;;;;10.15;2.33;;;;;;;7.96;100.00;99293.88;5041055;28;20048;-54
2022/01/28 12:53:35;;;;;;;11.00;2.70;;;;;;;7.12;100.00;99304.91;5043611;28;20028;-54
2022/01/28 12:56:02;;;;;;;12.98;2.83;;;;;;;7.75;100.00;99290.59;5041754;28;20049;-56
2022/01/28 12:58:36;;;;;;;15.68;2.50;;;;;;;7.07;100.00;99290.25;5043905;28;20024;-54
2022/01/28 13:01:05;;;;;;;9.65;2.40;;;;;;;7.59;100.00;99289.00;5020255;28;20140;-54
2022/01/28 13:03:36;;;;;;;10.60;2.45;;;;;;;7.75;100.00;99290.59;5043558;28;20060;-54
2022/01/28 13:06:24;;;;;;;13.75;2.63;;;;;;;7.71;100.00;99289.78;5041027;28;20033;-56
2022/01/28 13:08:50;;;;;;;9.50;2.35;;;;;;;7.34;100.00;99303.03;5043496;28;20459;-55
2022/01/28 13:11:16;;;;;;;15.15;3.17;;;;;;;7.69;100.00;99308.84;5042146;28;20731;-55
2022/01/28 13:14:08;;;;;;;12.95;2.67;;;;;;;7.73;100.00;99313.13;5043489;28;20620;-54
2022/01/28 13:16:36;;;;;;;12.73;2.63;;;;;;;7.90;100.00;99321.66;5038973;28;20063;-54
2022/01/28 13:19:04;;;;;;;14.43;2.58;;;;;;;7.66;100.00;99304.53;5043353;28;20074;-55
2022/01/28 13:21:31;;;;;;;13.18;2.50;;;;;;;7.39;100.00;99303.03;5038619;28;20041;-55
2022/01/28 13:24:04;;;;;;;8.98;2.40;;;;;;;7.71;100.00;99300.16;5043258;28;20390;-55
2022/01/28 13:26:29;;;;;;;13.95;3.03;;;;;;;7.62;100.00;99304.56;5041782;28;20588;-53